sensor_id;sensor_type;location;lat;lon;timestamp;P1;durP1;ratioP1;P2;durP2;ratioP2
357;SDS011;167;47.558;7.602;2024-01-30T00:01:52;10.40;;;9.40;;
357;SDS011;167;47.558;7.602;2024-01-30T00:04:18;10.63;;;9.53;;
357;SDS011;167;47.558;7.602;2024-01-30T00:06:44;10.10;;;9.20;;
357;SDS011;167;47.558;7.602;2024-01-30T00:09:10;9.57;;;8.77;;
357;SDS011;167;47.558;7.602;2024-01-30T00:11:37;11.50;;;10.30;;
357;SDS011;167;47.558;7.602;2024-01-30T00:14:03;12.10;;;10.93;;
357;SDS011;167;47.558;7.602;2024-01-30T00:16:29;11.30;;;10.20;;
357;SDS011;167;47.558;7.602;2024-01-30T00:18:56;11.50;;;10.40;;
357;SDS011;167;47.558;7.602;2024-01-30T00:21:22;10.07;;;9.17;;
357;SDS011;167;47.558;7.602;2024-01-30T00:23:48;11.30;;;10.07;;
357;SDS011;167;47.558;7.602;2024-01-30T00:26:14;10.53;;;9.53;;
357;SDS011;167;47.558;7.602;2024-01-30T00:28:41;10.73;;;9.73;;
357;SDS011;167;47.558;7.602;2024-01-30T00:31:07;10.63;;;9.53;;
357;SDS011;167;47.558;7.602;2024-01-30T00:33:37;12.00;;;10.40;;
357;SDS011;167;47.558;7.602;2024-01-30T00:36:03;11.37;;;10.27;;
357;SDS011;167;47.558;7.602;2024-01-30T00:38:29;9.60;;;8.80;;
357;SDS011;167;47.558;7.602;2024-01-30T00:40:55;10.30;;;9.20;;
357;SDS011;167;47.558;7.602;2024-01-30T00:43:21;11.30;;;10.30;;
357;SDS011;167;47.558;7.602;2024-01-30T00:45:47;9.17;;;8.47;;
357;SDS011;167;47.558;7.602;2024-01-30T00:48:13;9.50;;;8.60;;
357;SDS011;167;47.558;7.602;2024-01-30T00:50:39;11.50;;;10.40;;
357;SDS011;167;47.558;7.602;2024-01-30T00:53:05;9.67;;;8.40;;
357;SDS011;167;47.558;7.602;2024-01-30T00:55:31;10.30;;;9.20;;
357;SDS011;167;47.558;7.602;2024-01-30T00:57:57;10.00;;;8.57;;
357;SDS011;167;47.558;7.602;2024-01-30T01:00:23;10.33;;;9.47;;
357;SDS011;167;47.558;7.602;2024-01-30T01:02:53;10.03;;;9.13;;
357;SDS011;167;47.558;7.602;2024-01-30T01:05:20;9.80;;;8.90;;
357;SDS011;167;47.558;7.602;2024-01-30T01:07:46;10.23;;;9.10;;
357;SDS011;167;47.558;7.602;2024-01-30T01:10:13;10.00;;;8.97;;
357;SDS011;167;47.558;7.602;2024-01-30T01:12:39;10.30;;;9.30;;
357;SDS011;167;47.558;7.602;2024-01-30T01:15:05;10.37;;;9.47;;
357;SDS011;167;47.558;7.602;2024-01-30T01:17:34;13.07;;;11.37;;
357;SDS011;167;47.558;7.602;2024-01-30T01:20:01;10.13;;;9.20;;
357;SDS011;167;47.558;7.602;2024-01-30T01:22:28;9.10;;;8.30;;
357;SDS011;167;47.558;7.602;2024-01-30T01:24:54;10.50;;;9.53;;
357;SDS011;167;47.558;7.602;2024-01-30T01:27:20;10.30;;;9.27;;
357;SDS011;167;47.558;7.602;2024-01-30T01:29:46;9.70;;;8.80;;
357;SDS011;167;47.558;7.602;2024-01-30T01:32:12;9.87;;;8.87;;
357;SDS011;167;47.558;7.602;2024-01-30T01:34:38;9.20;;;8.40;;
357;SDS011;167;47.558;7.602;2024-01-30T01:37:04;9.37;;;8.47;;
357;SDS011;167;47.558;7.602;2024-01-30T01:39:30;9.50;;;8.70;;
357;SDS011;167;47.558;7.602;2024-01-30T01:41:56;10.07;;;9.20;;
357;SDS011;167;47.558;7.602;2024-01-30T01:44:22;10.70;;;9.67;;
357;SDS011;167;47.558;7.602;2024-01-30T01:46:48;9.30;;;8.47;;
357;SDS011;167;47.558;7.602;2024-01-30T01:49:14;10.73;;;9.83;;
357;SDS011;167;47.558;7.602;2024-01-30T01:51:41;10.67;;;9.60;;
357;SDS011;167;47.558;7.602;2024-01-30T01:54:08;9.57;;;8.57;;
357;SDS011;167;47.558;7.602;2024-01-30T01:56:35;11.30;;;10.33;;
357;SDS011;167;47.558;7.602;2024-01-30T01:59:06;12.73;;;9.57;;
357;SDS011;167;47.558;7.602;2024-01-30T02:01:33;10.53;;;9.50;;
357;SDS011;167;47.558;7.602;2024-01-30T02:03:59;9.63;;;8.70;;
357;SDS011;167;47.558;7.602;2024-01-30T02:06:26;9.70;;;8.80;;
357;SDS011;167;47.558;7.602;2024-01-30T02:08:52;11.80;;;10.67;;
357;SDS011;167;47.558;7.602;2024-01-30T02:11:18;9.90;;;9.00;;
357;SDS011;167;47.558;7.602;2024-01-30T02:13:44;10.53;;;9.43;;
357;SDS011;167;47.558;7.602;2024-01-30T02:16:10;10.13;;;9.13;;
357;SDS011;167;47.558;7.602;2024-01-30T02:18:36;8.83;;;7.93;;
357;SDS011;167;47.558;7.602;2024-01-30T02:21:07;10.37;;;9.27;;
357;SDS011;167;47.558;7.602;2024-01-30T02:23:33;11.43;;;10.50;;
357;SDS011;167;47.558;7.602;2024-01-30T02:25:59;10.13;;;9.13;;
357;SDS011;167;47.558;7.602;2024-01-30T02:28:25;10.23;;;9.40;;
357;SDS011;167;47.558;7.602;2024-01-30T02:30:52;10.10;;;9.10;;
357;SDS011;167;47.558;7.602;2024-01-30T02:33:18;10.43;;;9.47;;
357;SDS011;167;47.558;7.602;2024-01-30T02:35:44;10.07;;;9.00;;
357;SDS011;167;47.558;7.602;2024-01-30T02:38:10;10.50;;;9.60;;
357;SDS011;167;47.558;7.602;2024-01-30T02:40:36;9.97;;;8.97;;
357;SDS011;167;47.558;7.602;2024-01-30T02:43:02;10.20;;;9.07;;
357;SDS011;167;47.558;7.602;2024-01-30T02:45:29;9.97;;;8.97;;
357;SDS011;167;47.558;7.602;2024-01-30T02:47:55;10.10;;;9.20;;
357;SDS011;167;47.558;7.602;2024-01-30T02:50:21;12.90;;;9.67;;
357;SDS011;167;47.558;7.602;2024-01-30T02:52:47;8.43;;;7.53;;
357;SDS011;167;47.558;7.602;2024-01-30T02:55:13;9.83;;;9.03;;
357;SDS011;167;47.558;7.602;2024-01-30T02:57:39;9.77;;;8.90;;
357;SDS011;167;47.558;7.602;2024-01-30T03:00:05;10.50;;;9.60;;
357;SDS011;167;47.558;7.602;2024-01-30T03:02:34;8.77;;;8.03;;
357;SDS011;167;47.558;7.602;2024-01-30T03:05:00;9.83;;;8.97;;
357;SDS011;167;47.558;7.602;2024-01-30T03:07:26;9.23;;;8.33;;
357;SDS011;167;47.558;7.602;2024-01-30T03:09:52;9.53;;;8.50;;
357;SDS011;167;47.558;7.602;2024-01-30T03:12:20;9.23;;;8.33;;
357;SDS011;167;47.558;7.602;2024-01-30T03:14:46;9.37;;;8.40;;
357;SDS011;167;47.558;7.602;2024-01-30T03:17:12;10.30;;;9.20;;
357;SDS011;167;47.558;7.602;2024-01-30T03:19:38;9.00;;;8.20;;
357;SDS011;167;47.558;7.602;2024-01-30T03:22:04;10.37;;;9.23;;
357;SDS011;167;47.558;7.602;2024-01-30T03:24:30;10.23;;;9.20;;
357;SDS011;167;47.558;7.602;2024-01-30T03:26:56;9.07;;;8.20;;
357;SDS011;167;47.558;7.602;2024-01-30T03:29:22;8.80;;;8.00;;
357;SDS011;167;47.558;7.602;2024-01-30T03:31:48;8.43;;;7.73;;
357;SDS011;167;47.558;7.602;2024-01-30T03:34:14;9.57;;;8.17;;
357;SDS011;167;47.558;7.602;2024-01-30T03:36:40;9.13;;;8.27;;
357;SDS011;167;47.558;7.602;2024-01-30T03:39:06;8.30;;;7.50;;
357;SDS011;167;47.558;7.602;2024-01-30T03:41:32;8.73;;;7.73;;
357;SDS011;167;47.558;7.602;2024-01-30T03:43:58;8.50;;;7.70;;
357;SDS011;167;47.558;7.602;2024-01-30T03:46:24;8.47;;;7.63;;
357;SDS011;167;47.558;7.602;2024-01-30T03:48:50;9.00;;;8.13;;
357;SDS011;167;47.558;7.602;2024-01-30T03:51:16;8.70;;;7.80;;
357;SDS011;167;47.558;7.602;2024-01-30T03:53:42;9.37;;;8.50;;
357;SDS011;167;47.558;7.602;2024-01-30T03:56:09;9.60;;;8.40;;
357;SDS011;167;47.558;7.602;2024-01-30T03:58:35;9.53;;;8.60;;
357;SDS011;167;47.558;7.602;2024-01-30T04:01:01;8.43;;;7.73;;
357;SDS011;167;47.558;7.602;2024-01-30T04:03:27;10.07;;;9.07;;
357;SDS011;167;47.558;7.602;2024-01-30T04:05:53;8.93;;;8.00;;
357;SDS011;167;47.558;7.602;2024-01-30T04:08:19;10.20;;;8.70;;
357;SDS011;167;47.558;7.602;2024-01-30T04:10:46;8.93;;;8.13;;
357;SDS011;167;47.558;7.602;2024-01-30T04:13:12;8.57;;;7.77;;
357;SDS011;167;47.558;7.602;2024-01-30T04:15:38;9.80;;;8.90;;
357;SDS011;167;47.558;7.602;2024-01-30T04:18:04;8.80;;;7.70;;
357;SDS011;167;47.558;7.602;2024-01-30T04:20:30;8.43;;;7.70;;
357;SDS011;167;47.558;7.602;2024-01-30T04:22:56;10.30;;;9.30;;
357;SDS011;167;47.558;7.602;2024-01-30T04:25:23;9.30;;;8.40;;
357;SDS011;167;47.558;7.602;2024-01-30T04:27:49;8.27;;;7.57;;
357;SDS011;167;47.558;7.602;2024-01-30T04:30:15;9.40;;;8.60;;
357;SDS011;167;47.558;7.602;2024-01-30T04:32:42;10.27;;;8.50;;
357;SDS011;167;47.558;7.602;2024-01-30T04:35:08;8.50;;;7.90;;
357;SDS011;167;47.558;7.602;2024-01-30T04:37:34;9.17;;;8.37;;
357;SDS011;167;47.558;7.602;2024-01-30T04:40:00;9.40;;;8.57;;
357;SDS011;167;47.558;7.602;2024-01-30T04:42:28;9.27;;;8.37;;
357;SDS011;167;47.558;7.602;2024-01-30T04:44:53;9.00;;;8.23;;
357;SDS011;167;47.558;7.602;2024-01-30T04:47:19;9.67;;;8.80;;
357;SDS011;167;47.558;7.602;2024-01-30T04:49:46;9.63;;;8.43;;
357;SDS011;167;47.558;7.602;2024-01-30T04:52:12;9.03;;;8.23;;
357;SDS011;167;47.558;7.602;2024-01-30T04:54:38;9.23;;;8.43;;
357;SDS011;167;47.558;7.602;2024-01-30T04:57:04;10.80;;;8.77;;
357;SDS011;167;47.558;7.602;2024-01-30T04:59:34;10.73;;;8.70;;
357;SDS011;167;47.558;7.602;2024-01-30T05:02:00;9.30;;;8.40;;
357;SDS011;167;47.558;7.602;2024-01-30T05:04:26;9.20;;;8.30;;
357;SDS011;167;47.558;7.602;2024-01-30T05:06:52;8.50;;;7.80;;
357;SDS011;167;47.558;7.602;2024-01-30T05:09:18;9.03;;;8.23;;
357;SDS011;167;47.558;7.602;2024-01-30T05:11:44;9.03;;;7.57;;
357;SDS011;167;47.558;7.602;2024-01-30T05:14:10;9.07;;;8.27;;
357;SDS011;167;47.558;7.602;2024-01-30T05:16:37;8.50;;;7.80;;
357;SDS011;167;47.558;7.602;2024-01-30T05:19:03;9.63;;;8.53;;
357;SDS011;167;47.558;7.602;2024-01-30T05:21:29;10.20;;;9.17;;
357;SDS011;167;47.558;7.602;2024-01-30T05:23:55;8.80;;;7.70;;
357;SDS011;167;47.558;7.602;2024-01-30T05:26:21;8.37;;;7.40;;
357;SDS011;167;47.558;7.602;2024-01-30T05:28:48;9.83;;;8.40;;
357;SDS011;167;47.558;7.602;2024-01-30T05:31:14;9.80;;;8.80;;
357;SDS011;167;47.558;7.602;2024-01-30T05:33:40;9.20;;;8.13;;
357;SDS011;167;47.558;7.602;2024-01-30T05:36:06;9.60;;;8.70;;
357;SDS011;167;47.558;7.602;2024-01-30T05:38:32;9.50;;;8.57;;
357;SDS011;167;47.558;7.602;2024-01-30T05:40:58;10.07;;;9.17;;
357;SDS011;167;47.558;7.602;2024-01-30T05:43:24;8.73;;;7.83;;
357;SDS011;167;47.558;7.602;2024-01-30T05:45:50;9.53;;;8.73;;
357;SDS011;167;47.558;7.602;2024-01-30T05:48:17;10.80;;;8.83;;
357;SDS011;167;47.558;7.602;2024-01-30T05:50:43;9.67;;;8.10;;
357;SDS011;167;47.558;7.602;2024-01-30T05:53:10;8.10;;;7.40;;
357;SDS011;167;47.558;7.602;2024-01-30T05:55:36;10.03;;;7.93;;
357;SDS011;167;47.558;7.602;2024-01-30T05:58:02;8.33;;;7.63;;
357;SDS011;167;47.558;7.602;2024-01-30T06:00:28;10.70;;;9.07;;
357;SDS011;167;47.558;7.602;2024-01-30T06:02:54;7.77;;;7.07;;
357;SDS011;167;47.558;7.602;2024-01-30T06:05:20;8.60;;;7.80;;
357;SDS011;167;47.558;7.602;2024-01-30T06:07:46;7.70;;;7.07;;
357;SDS011;167;47.558;7.602;2024-01-30T06:10:12;9.40;;;8.50;;
357;SDS011;167;47.558;7.602;2024-01-30T06:12:39;8.00;;;7.33;;
357;SDS011;167;47.558;7.602;2024-01-30T06:15:05;8.77;;;7.97;;
357;SDS011;167;47.558;7.602;2024-01-30T06:17:31;8.90;;;8.10;;
357;SDS011;167;47.558;7.602;2024-01-30T06:19:57;8.50;;;7.60;;
357;SDS011;167;47.558;7.602;2024-01-30T06:22:24;8.97;;;8.03;;
357;SDS011;167;47.558;7.602;2024-01-30T06:24:50;10.17;;;8.47;;
357;SDS011;167;47.558;7.602;2024-01-30T06:27:16;9.80;;;8.90;;
357;SDS011;167;47.558;7.602;2024-01-30T06:29:45;9.03;;;8.00;;
357;SDS011;167;47.558;7.602;2024-01-30T06:32:11;9.03;;;8.20;;
357;SDS011;167;47.558;7.602;2024-01-30T06:34:37;9.47;;;7.30;;
357;SDS011;167;47.558;7.602;2024-01-30T06:37:05;9.77;;;8.40;;
357;SDS011;167;47.558;7.602;2024-01-30T06:39:31;9.03;;;8.13;;
357;SDS011;167;47.558;7.602;2024-01-30T06:41:57;9.87;;;8.87;;
357;SDS011;167;47.558;7.602;2024-01-30T06:44:23;9.37;;;8.53;;
357;SDS011;167;47.558;7.602;2024-01-30T06:46:49;8.97;;;7.70;;
357;SDS011;167;47.558;7.602;2024-01-30T06:49:15;10.10;;;9.10;;
357;SDS011;167;47.558;7.602;2024-01-30T06:51:41;8.57;;;7.83;;
357;SDS011;167;47.558;7.602;2024-01-30T06:54:07;12.87;;;9.30;;
357;SDS011;167;47.558;7.602;2024-01-30T06:56:33;10.30;;;8.77;;
357;SDS011;167;47.558;7.602;2024-01-30T06:58:59;14.53;;;8.67;;
357;SDS011;167;47.558;7.602;2024-01-30T07:01:28;10.00;;;9.10;;
357;SDS011;167;47.558;7.602;2024-01-30T07:03:55;11.27;;;10.17;;
357;SDS011;167;47.558;7.602;2024-01-30T07:06:21;10.23;;;9.23;;
357;SDS011;167;47.558;7.602;2024-01-30T07:08:47;11.63;;;9.83;;
357;SDS011;167;47.558;7.602;2024-01-30T07:11:19;9.17;;;8.27;;
357;SDS011;167;47.558;7.602;2024-01-30T07:13:50;10.23;;;8.37;;
357;SDS011;167;47.558;7.602;2024-01-30T07:16:16;8.20;;;7.40;;
357;SDS011;167;47.558;7.602;2024-01-30T07:18:43;10.40;;;9.03;;
357;SDS011;167;47.558;7.602;2024-01-30T07:21:09;10.20;;;9.20;;
357;SDS011;167;47.558;7.602;2024-01-30T07:23:35;8.10;;;7.30;;
357;SDS011;167;47.558;7.602;2024-01-30T07:26:04;14.03;;;10.17;;
357;SDS011;167;47.558;7.602;2024-01-30T07:28:29;7.63;;;6.87;;
357;SDS011;167;47.558;7.602;2024-01-30T07:30:55;10.00;;;9.07;;
357;SDS011;167;47.558;7.602;2024-01-30T07:33:21;9.47;;;8.57;;
357;SDS011;167;47.558;7.602;2024-01-30T07:35:48;9.90;;;8.40;;
357;SDS011;167;47.558;7.602;2024-01-30T07:38:14;10.10;;;9.20;;
357;SDS011;167;47.558;7.602;2024-01-30T07:40:40;9.00;;;8.30;;
357;SDS011;167;47.558;7.602;2024-01-30T07:43:06;9.83;;;8.80;;
357;SDS011;167;47.558;7.602;2024-01-30T07:45:33;10.43;;;9.53;;
357;SDS011;167;47.558;7.602;2024-01-30T07:47:59;10.70;;;9.70;;
357;SDS011;167;47.558;7.602;2024-01-30T07:50:25;9.40;;;8.60;;
357;SDS011;167;47.558;7.602;2024-01-30T07:52:51;11.30;;;10.10;;
357;SDS011;167;47.558;7.602;2024-01-30T07:55:29;10.03;;;8.03;;
357;SDS011;167;47.558;7.602;2024-01-30T07:58:24;8.30;;;7.40;;
357;SDS011;167;47.558;7.602;2024-01-30T08:00:52;9.73;;;8.73;;
357;SDS011;167;47.558;7.602;2024-01-30T08:03:18;8.63;;;7.83;;
357;SDS011;167;47.558;7.602;2024-01-30T08:05:44;9.90;;;9.00;;
357;SDS011;167;47.558;7.602;2024-01-30T08:08:10;10.70;;;9.00;;
357;SDS011;167;47.558;7.602;2024-01-30T08:10:36;11.03;;;10.10;;
357;SDS011;167;47.558;7.602;2024-01-30T08:13:02;9.20;;;8.33;;
357;SDS011;167;47.558;7.602;2024-01-30T08:15:28;10.67;;;9.70;;
357;SDS011;167;47.558;7.602;2024-01-30T08:17:54;9.57;;;8.30;;
357;SDS011;167;47.558;7.602;2024-01-30T08:20:23;10.80;;;9.80;;
357;SDS011;167;47.558;7.602;2024-01-30T08:22:49;9.83;;;8.83;;
357;SDS011;167;47.558;7.602;2024-01-30T08:25:15;11.37;;;10.10;;
357;SDS011;167;47.558;7.602;2024-01-30T08:27:41;11.43;;;10.33;;
357;SDS011;167;47.558;7.602;2024-01-30T08:30:07;9.00;;;8.20;;
357;SDS011;167;47.558;7.602;2024-01-30T08:32:33;10.87;;;9.80;;
357;SDS011;167;47.558;7.602;2024-01-30T08:34:59;11.30;;;9.87;;
357;SDS011;167;47.558;7.602;2024-01-30T08:37:28;11.00;;;10.10;;
357;SDS011;167;47.558;7.602;2024-01-30T08:39:54;10.37;;;9.33;;
357;SDS011;167;47.558;7.602;2024-01-30T08:42:20;12.90;;;10.10;;
357;SDS011;167;47.558;7.602;2024-01-30T08:44:50;11.87;;;10.67;;
357;SDS011;167;47.558;7.602;2024-01-30T08:47:17;11.20;;;10.20;;
357;SDS011;167;47.558;7.602;2024-01-30T08:49:43;11.60;;;10.40;;
357;SDS011;167;47.558;7.602;2024-01-30T08:52:10;9.33;;;8.43;;
357;SDS011;167;47.558;7.602;2024-01-30T08:54:36;11.97;;;10.03;;
357;SDS011;167;47.558;7.602;2024-01-30T08:57:02;8.60;;;7.70;;
357;SDS011;167;47.558;7.602;2024-01-30T08:59:29;9.53;;;8.53;;
357;SDS011;167;47.558;7.602;2024-01-30T09:01:55;10.00;;;9.07;;
357;SDS011;167;47.558;7.602;2024-01-30T09:04:22;12.27;;;9.80;;
357;SDS011;167;47.558;7.602;2024-01-30T09:06:49;10.07;;;9.17;;
357;SDS011;167;47.558;7.602;2024-01-30T09:09:15;12.10;;;10.87;;
357;SDS011;167;47.558;7.602;2024-01-30T09:11:41;10.30;;;9.30;;
357;SDS011;167;47.558;7.602;2024-01-30T09:14:07;9.10;;;8.30;;
357;SDS011;167;47.558;7.602;2024-01-30T09:16:34;9.50;;;8.63;;
357;SDS011;167;47.558;7.602;2024-01-30T09:19:00;10.40;;;9.47;;
357;SDS011;167;47.558;7.602;2024-01-30T09:21:26;10.70;;;9.60;;
357;SDS011;167;47.558;7.602;2024-01-30T09:23:54;9.97;;;9.07;;
357;SDS011;167;47.558;7.602;2024-01-30T09:26:20;11.40;;;10.40;;
357;SDS011;167;47.558;7.602;2024-01-30T09:28:46;10.53;;;9.60;;
357;SDS011;167;47.558;7.602;2024-01-30T09:31:12;10.40;;;9.43;;
357;SDS011;167;47.558;7.602;2024-01-30T09:33:38;10.83;;;9.83;;
357;SDS011;167;47.558;7.602;2024-01-30T09:36:07;10.63;;;9.53;;
357;SDS011;167;47.558;7.602;2024-01-30T09:38:33;11.23;;;10.27;;
357;SDS011;167;47.558;7.602;2024-01-30T09:41:01;10.40;;;9.40;;
357;SDS011;167;47.558;7.602;2024-01-30T09:43:28;10.90;;;9.77;;
357;SDS011;167;47.558;7.602;2024-01-30T09:45:56;12.83;;;10.77;;
357;SDS011;167;47.558;7.602;2024-01-30T09:48:23;10.70;;;9.60;;
357;SDS011;167;47.558;7.602;2024-01-30T09:50:50;12.33;;;11.13;;
357;SDS011;167;47.558;7.602;2024-01-30T09:53:16;10.53;;;9.73;;
357;SDS011;167;47.558;7.602;2024-01-30T09:55:43;9.30;;;8.40;;
357;SDS011;167;47.558;7.602;2024-01-30T09:58:09;10.43;;;9.37;;
357;SDS011;167;47.558;7.602;2024-01-30T10:00:35;10.53;;;9.50;;
357;SDS011;167;47.558;7.602;2024-01-30T10:03:01;10.17;;;9.23;;
357;SDS011;167;47.558;7.602;2024-01-30T10:05:27;10.90;;;9.77;;
357;SDS011;167;47.558;7.602;2024-01-30T10:07:53;11.97;;;10.77;;
357;SDS011;167;47.558;7.602;2024-01-30T10:10:21;9.90;;;9.10;;
357;SDS011;167;47.558;7.602;2024-01-30T10:12:48;10.93;;;9.93;;
357;SDS011;167;47.558;7.602;2024-01-30T10:15:14;10.20;;;9.40;;
357;SDS011;167;47.558;7.602;2024-01-30T10:17:40;10.57;;;9.47;;
357;SDS011;167;47.558;7.602;2024-01-30T10:20:06;10.40;;;9.50;;
357;SDS011;167;47.558;7.602;2024-01-30T10:22:33;10.50;;;9.70;;
357;SDS011;167;47.558;7.602;2024-01-30T10:24:59;9.77;;;9.03;;
357;SDS011;167;47.558;7.602;2024-01-30T10:27:26;9.73;;;8.87;;
357;SDS011;167;47.558;7.602;2024-01-30T10:29:52;10.83;;;9.80;;
357;SDS011;167;47.558;7.602;2024-01-30T10:32:19;9.93;;;9.03;;
357;SDS011;167;47.558;7.602;2024-01-30T10:34:46;9.80;;;9.00;;
357;SDS011;167;47.558;7.602;2024-01-30T10:37:12;9.20;;;8.40;;
357;SDS011;167;47.558;7.602;2024-01-30T10:39:41;10.20;;;9.30;;
357;SDS011;167;47.558;7.602;2024-01-30T10:42:10;10.77;;;9.67;;
357;SDS011;167;47.558;7.602;2024-01-30T10:44:39;13.53;;;10.90;;
357;SDS011;167;47.558;7.602;2024-01-30T10:47:11;12.13;;;10.93;;
357;SDS011;167;47.558;7.602;2024-01-30T10:49:41;11.10;;;10.00;;
357;SDS011;167;47.558;7.602;2024-01-30T10:52:08;10.33;;;9.43;;
357;SDS011;167;47.558;7.602;2024-01-30T10:54:34;11.13;;;10.03;;
357;SDS011;167;47.558;7.602;2024-01-30T10:57:01;10.30;;;9.40;;
357;SDS011;167;47.558;7.602;2024-01-30T10:59:28;9.40;;;8.67;;
357;SDS011;167;47.558;7.602;2024-01-30T11:01:56;10.00;;;9.30;;
357;SDS011;167;47.558;7.602;2024-01-30T11:04:22;9.83;;;9.13;;
357;SDS011;167;47.558;7.602;2024-01-30T11:06:50;9.60;;;8.80;;
357;SDS011;167;47.558;7.602;2024-01-30T11:09:17;10.27;;;9.37;;
357;SDS011;167;47.558;7.602;2024-01-30T11:11:50;10.30;;;9.40;;
357;SDS011;167;47.558;7.602;2024-01-30T11:14:16;9.07;;;8.40;;
357;SDS011;167;47.558;7.602;2024-01-30T11:16:42;9.87;;;9.07;;
357;SDS011;167;47.558;7.602;2024-01-30T11:19:11;12.10;;;11.00;;
357;SDS011;167;47.558;7.602;2024-01-30T11:21:43;11.37;;;10.47;;
357;SDS011;167;47.558;7.602;2024-01-30T11:24:09;13.47;;;11.90;;
357;SDS011;167;47.558;7.602;2024-01-30T11:26:36;11.77;;;10.80;;
357;SDS011;167;47.558;7.602;2024-01-30T11:29:07;10.57;;;9.77;;
357;SDS011;167;47.558;7.602;2024-01-30T11:31:34;11.00;;;10.20;;
357;SDS011;167;47.558;7.602;2024-01-30T11:34:00;11.20;;;10.10;;
357;SDS011;167;47.558;7.602;2024-01-30T11:36:26;10.50;;;9.60;;
357;SDS011;167;47.558;7.602;2024-01-30T11:38:53;10.00;;;9.30;;
357;SDS011;167;47.558;7.602;2024-01-30T11:41:19;10.40;;;9.40;;
357;SDS011;167;47.558;7.602;2024-01-30T11:43:52;11.30;;;10.17;;
357;SDS011;167;47.558;7.602;2024-01-30T11:46:19;12.10;;;10.90;;
357;SDS011;167;47.558;7.602;2024-01-30T11:48:45;11.90;;;10.80;;
357;SDS011;167;47.558;7.602;2024-01-30T11:51:12;12.03;;;11.00;;
357;SDS011;167;47.558;7.602;2024-01-30T11:53:38;12.97;;;11.87;;
357;SDS011;167;47.558;7.602;2024-01-30T11:56:07;10.03;;;9.13;;
357;SDS011;167;47.558;7.602;2024-01-30T11:58:33;13.37;;;12.07;;
357;SDS011;167;47.558;7.602;2024-01-30T12:00:59;12.67;;;11.67;;
357;SDS011;167;47.558;7.602;2024-01-30T12:03:25;10.80;;;9.70;;
357;SDS011;167;47.558;7.602;2024-01-30T12:05:58;9.70;;;8.97;;
357;SDS011;167;47.558;7.602;2024-01-30T12:08:24;9.77;;;8.93;;
357;SDS011;167;47.558;7.602;2024-01-30T12:10:56;11.00;;;10.10;;
357;SDS011;167;47.558;7.602;2024-01-30T12:13:31;9.80;;;9.10;;
357;SDS011;167;47.558;7.602;2024-01-30T12:15:58;10.97;;;10.07;;
357;SDS011;167;47.558;7.602;2024-01-30T12:18:24;9.97;;;9.03;;
357;SDS011;167;47.558;7.602;2024-01-30T12:20:56;9.63;;;8.80;;
357;SDS011;167;47.558;7.602;2024-01-30T12:23:23;11.53;;;10.53;;
357;SDS011;167;47.558;7.602;2024-01-30T12:25:50;10.27;;;9.40;;
357;SDS011;167;47.558;7.602;2024-01-30T12:28:17;10.77;;;9.87;;
357;SDS011;167;47.558;7.602;2024-01-30T12:30:43;9.60;;;8.70;;
357;SDS011;167;47.558;7.602;2024-01-30T12:33:09;10.03;;;9.23;;
357;SDS011;167;47.558;7.602;2024-01-30T12:35:35;9.50;;;8.80;;
357;SDS011;167;47.558;7.602;2024-01-30T12:38:01;10.10;;;9.20;;
357;SDS011;167;47.558;7.602;2024-01-30T12:40:27;11.33;;;8.80;;
357;SDS011;167;47.558;7.602;2024-01-30T12:42:54;10.63;;;9.73;;
357;SDS011;167;47.558;7.602;2024-01-30T12:45:20;12.03;;;11.00;;
357;SDS011;167;47.558;7.602;2024-01-30T12:47:47;9.50;;;8.60;;
357;SDS011;167;47.558;7.602;2024-01-30T12:50:13;10.13;;;9.23;;
357;SDS011;167;47.558;7.602;2024-01-30T12:52:42;11.10;;;10.20;;
357;SDS011;167;47.558;7.602;2024-01-30T12:55:08;12.70;;;11.60;;
357;SDS011;167;47.558;7.602;2024-01-30T12:57:34;13.67;;;11.27;;
357;SDS011;167;47.558;7.602;2024-01-30T13:00:00;12.20;;;11.03;;
357;SDS011;167;47.558;7.602;2024-01-30T13:02:26;12.00;;;10.90;;
357;SDS011;167;47.558;7.602;2024-01-30T13:04:59;12.70;;;11.60;;
357;SDS011;167;47.558;7.602;2024-01-30T13:07:25;18.23;;;11.57;;
357;SDS011;167;47.558;7.602;2024-01-30T13:09:51;11.57;;;10.53;;
357;SDS011;167;47.558;7.602;2024-01-30T13:12:17;12.47;;;11.30;;
357;SDS011;167;47.558;7.602;2024-01-30T13:14:43;11.27;;;10.37;;
357;SDS011;167;47.558;7.602;2024-01-30T13:17:09;12.40;;;11.37;;
357;SDS011;167;47.558;7.602;2024-01-30T13:19:35;12.43;;;11.33;;
357;SDS011;167;47.558;7.602;2024-01-30T13:22:01;12.40;;;11.30;;
357;SDS011;167;47.558;7.602;2024-01-30T13:24:27;12.20;;;11.07;;
357;SDS011;167;47.558;7.602;2024-01-30T13:26:53;11.50;;;10.40;;
357;SDS011;167;47.558;7.602;2024-01-30T13:29:19;9.67;;;8.87;;
357;SDS011;167;47.558;7.602;2024-01-30T13:31:45;11.43;;;9.73;;
357;SDS011;167;47.558;7.602;2024-01-30T13:34:12;10.07;;;9.10;;
357;SDS011;167;47.558;7.602;2024-01-30T13:36:38;10.03;;;9.20;;
357;SDS011;167;47.558;7.602;2024-01-30T13:39:04;9.27;;;8.47;;
357;SDS011;167;47.558;7.602;2024-01-30T13:41:34;10.17;;;9.27;;
357;SDS011;167;47.558;7.602;2024-01-30T13:44:00;11.30;;;10.20;;
357;SDS011;167;47.558;7.602;2024-01-30T13:46:28;10.53;;;9.60;;
357;SDS011;167;47.558;7.602;2024-01-30T13:48:54;9.40;;;8.50;;
357;SDS011;167;47.558;7.602;2024-01-30T13:51:20;10.03;;;9.00;;
357;SDS011;167;47.558;7.602;2024-01-30T13:53:46;10.00;;;9.10;;
357;SDS011;167;47.558;7.602;2024-01-30T13:56:12;9.10;;;8.27;;
357;SDS011;167;47.558;7.602;2024-01-30T13:58:38;10.37;;;9.47;;
357;SDS011;167;47.558;7.602;2024-01-30T14:01:04;10.57;;;9.67;;
357;SDS011;167;47.558;7.602;2024-01-30T14:03:30;8.70;;;7.97;;
357;SDS011;167;47.558;7.602;2024-01-30T14:05:57;9.50;;;8.70;;
357;SDS011;167;47.558;7.602;2024-01-30T14:08:23;8.40;;;7.70;;
357;SDS011;167;47.558;7.602;2024-01-30T14:10:51;9.83;;;8.83;;
357;SDS011;167;47.558;7.602;2024-01-30T14:13:17;9.13;;;8.33;;
357;SDS011;167;47.558;7.602;2024-01-30T14:15:43;8.87;;;8.20;;
357;SDS011;167;47.558;7.602;2024-01-30T14:18:10;8.90;;;8.10;;
357;SDS011;167;47.558;7.602;2024-01-30T14:20:36;9.70;;;8.73;;
357;SDS011;167;47.558;7.602;2024-01-30T14:23:02;8.87;;;8.07;;
357;SDS011;167;47.558;7.602;2024-01-30T14:25:28;10.53;;;8.23;;
357;SDS011;167;47.558;7.602;2024-01-30T14:27:54;8.87;;;8.10;;
357;SDS011;167;47.558;7.602;2024-01-30T14:30:20;8.87;;;8.10;;
357;SDS011;167;47.558;7.602;2024-01-30T14:32:46;8.53;;;7.73;;
357;SDS011;167;47.558;7.602;2024-01-30T14:35:12;8.60;;;7.70;;
357;SDS011;167;47.558;7.602;2024-01-30T14:37:38;7.93;;;7.23;;
357;SDS011;167;47.558;7.602;2024-01-30T14:40:05;7.47;;;6.90;;
357;SDS011;167;47.558;7.602;2024-01-30T14:42:34;8.07;;;7.37;;
357;SDS011;167;47.558;7.602;2024-01-30T14:45:02;6.93;;;6.37;;
357;SDS011;167;47.558;7.602;2024-01-30T14:47:28;8.37;;;7.30;;
357;SDS011;167;47.558;7.602;2024-01-30T14:49:54;7.10;;;6.57;;
357;SDS011;167;47.558;7.602;2024-01-30T14:52:20;7.23;;;6.60;;
357;SDS011;167;47.558;7.602;2024-01-30T14:54:46;6.90;;;6.17;;
357;SDS011;167;47.558;7.602;2024-01-30T14:57:12;7.70;;;6.87;;
357;SDS011;167;47.558;7.602;2024-01-30T14:59:39;6.47;;;5.90;;
357;SDS011;167;47.558;7.602;2024-01-30T15:02:05;6.33;;;5.83;;
357;SDS011;167;47.558;7.602;2024-01-30T15:04:31;8.47;;;7.00;;
357;SDS011;167;47.558;7.602;2024-01-30T15:06:57;5.90;;;5.40;;
357;SDS011;167;47.558;7.602;2024-01-30T15:09:23;7.67;;;7.07;;
357;SDS011;167;47.558;7.602;2024-01-30T15:11:51;8.57;;;6.27;;
357;SDS011;167;47.558;7.602;2024-01-30T15:14:17;7.40;;;6.70;;
357;SDS011;167;47.558;7.602;2024-01-30T15:16:43;7.80;;;7.17;;
357;SDS011;167;47.558;7.602;2024-01-30T15:19:09;7.70;;;7.03;;
357;SDS011;167;47.558;7.602;2024-01-30T15:21:36;7.53;;;6.60;;
357;SDS011;167;47.558;7.602;2024-01-30T15:24:02;17.10;;;7.23;;
357;SDS011;167;47.558;7.602;2024-01-30T15:26:28;7.87;;;7.17;;
357;SDS011;167;47.558;7.602;2024-01-30T15:28:54;8.47;;;6.77;;
357;SDS011;167;47.558;7.602;2024-01-30T15:31:20;8.40;;;6.87;;